AAL2141 KPHL-KMCO
Flight info
| Callsign | AAL2141 |
|---|---|
| Flight time | 1h 56m |
| Altitude | 34000 |
| Route | OOD TEBEE HAYDO TRPOD Q409 CRPLR EARZZ Q131 WAALT Y289 BAHAA HIBAC ALYNA4 |
| Aircraft | A321/M-SDE3FGHIRWY/LB1 |
Departure
| Time | 2026-05-05 18:34 |
|---|---|
| Airport | Philadelphia International Airport (KPHL) |
Arrival
| Time | 2026-05-05 20:30 |
|---|---|
| Airport | Orlando International Airport (KMCO) |
| Time | Latitude | Longitude | Altitude | Speed | Heading |
|---|---|---|---|---|---|
| 2026-05-05 17:43 | 39.87291 | -75.24723 | 26 ft | 0 kts | 2° |
| 2026-05-05 18:24 | 39.87285 | -75.24723 | 30 ft | 3 kts | 2° |
| 2026-05-05 18:25 | 39.87261 | -75.24725 | 29 ft | 3 kts | 9° |
| 2026-05-05 18:25 | 39.87245 | -75.24729 | 28 ft | 3 kts | 18° |
| 2026-05-05 18:25 | 39.87219 | -75.24749 | 30 ft | 3 kts | 62° |
| 2026-05-05 18:25 | 39.87216 | -75.24758 | 27 ft | 0 kts | 76° |
| 2026-05-05 18:29 | 39.87216 | -75.24756 | 27 ft | 1 kts | 76° |
| 2026-05-05 18:29 | 39.87221 | -75.24726 | 30 ft | 5 kts | 85° |
| 2026-05-05 18:29 | 39.87196 | -75.24675 | 27 ft | 9 kts | 137° |
| 2026-05-05 18:29 | 39.87177 | -75.24594 | 25 ft | 11 kts | 81° |
| 2026-05-05 18:30 | 39.87198 | -75.24485 | 25 ft | 13 kts | 75° |
| 2026-05-05 18:30 | 39.87221 | -75.24371 | 28 ft | 13 kts | 75° |
| 2026-05-05 18:30 | 39.87245 | -75.24252 | 25 ft | 14 kts | 75° |
| 2026-05-05 18:30 | 39.87223 | -75.24146 | 25 ft | 13 kts | 143° |
| 2026-05-05 18:31 | 39.87141 | -75.24092 | 29 ft | 13 kts | 163° |
| 2026-05-05 18:31 | 39.87049 | -75.24063 | 25 ft | 14 kts | 166° |
| 2026-05-05 18:31 | 39.86955 | -75.24036 | 25 ft | 14 kts | 168° |
| 2026-05-05 18:31 | 39.86905 | -75.23960 | 26 ft | 9 kts | 111° |
| 2026-05-05 18:32 | 39.86854 | -75.23927 | 29 ft | 9 kts | 163° |
| 2026-05-05 18:32 | 39.86802 | -75.23935 | 26 ft | 8 kts | 237° |
| 2026-05-05 18:32 | 39.86784 | -75.24002 | 28 ft | 8 kts | 257° |
| 2026-05-05 18:32 | 39.86777 | -75.24040 | 25 ft | 0 kts | 255° |
| 2026-05-05 18:33 | 39.86776 | -75.24045 | 25 ft | 8 kts | 255° |
| 2026-05-05 18:33 | 39.86688 | -75.24434 | 26 ft | 79 kts | 254° |
| 2026-05-05 18:33 | 39.86497 | -75.25397 | 27 ft | 139 kts | 255° |
| 2026-05-05 18:34 | 39.86211 | -75.26764 | 173 ft | 169 kts | 253° |
| 2026-05-05 18:34 | 39.85923 | -75.28276 | 750 ft | 175 kts | 256° |
| 2026-05-05 18:34 | 39.85491 | -75.29732 | 1432 ft | 171 kts | 227° |
| 2026-05-05 18:34 | 39.84573 | -75.30782 | 1762 ft | 186 kts | 218° |
| 2026-05-05 18:35 | 39.83498 | -75.31846 | 2023 ft | 203 kts | 214° |
| 2026-05-05 18:35 | 39.82112 | -75.32485 | 2147 ft | 228 kts | 183° |
| 2026-05-05 18:35 | 39.80466 | -75.32367 | 2532 ft | 243 kts | 177° |
| 2026-05-05 18:35 | 39.78775 | -75.32130 | 3228 ft | 246 kts | 176° |
| 2026-05-05 18:36 | 39.77061 | -75.31874 | 3897 ft | 250 kts | 177° |
| 2026-05-05 18:36 | 39.75327 | -75.31629 | 4623 ft | 252 kts | 178° |
| 2026-05-05 18:36 | 39.73568 | -75.31404 | 5296 ft | 255 kts | 179° |
| 2026-05-05 18:36 | 39.71817 | -75.31196 | 5997 ft | 256 kts | 181° |
| 2026-05-05 18:37 | 39.70025 | -75.30992 | 6682 ft | 258 kts | 182° |
| 2026-05-05 18:37 | 39.68241 | -75.30796 | 7336 ft | 260 kts | 182° |
| 2026-05-05 18:37 | 39.66427 | -75.30603 | 7967 ft | 263 kts | 183° |
| 2026-05-05 18:37 | 39.64592 | -75.30410 | 8596 ft | 265 kts | 184° |
| 2026-05-05 18:38 | 39.62769 | -75.30443 | 9225 ft | 260 kts | 195° |
| 2026-05-05 18:38 | 39.60965 | -75.30782 | 9872 ft | 262 kts | 196° |
| 2026-05-05 18:38 | 39.59119 | -75.31130 | 10164 ft | 277 kts | 196° |
| 2026-05-05 18:38 | 39.57141 | -75.31505 | 10289 ft | 297 kts | 195° |
| 2026-05-05 18:39 | 39.55053 | -75.31896 | 10415 ft | 315 kts | 195° |
| 2026-05-05 18:39 | 39.52821 | -75.32306 | 10584 ft | 330 kts | 194° |
| 2026-05-05 18:39 | 39.50517 | -75.32715 | 11015 ft | 336 kts | 194° |
| 2026-05-05 18:39 | 39.48182 | -75.33125 | 11526 ft | 340 kts | 194° |
| 2026-05-05 18:40 | 39.45817 | -75.33543 | 12055 ft | 344 kts | 194° |
| 2026-05-05 18:40 | 39.43432 | -75.33970 | 12571 ft | 348 kts | 194° |
| 2026-05-05 18:40 | 39.41046 | -75.34402 | 13068 ft | 352 kts | 194° |
| 2026-05-05 18:40 | 39.38603 | -75.34842 | 13573 ft | 356 kts | 194° |
| 2026-05-05 18:41 | 39.36132 | -75.35286 | 14035 ft | 360 kts | 194° |
| 2026-05-05 18:41 | 39.33639 | -75.35733 | 14467 ft | 363 kts | 193° |
| 2026-05-05 18:41 | 39.31120 | -75.36185 | 14873 ft | 367 kts | 193° |
| 2026-05-05 18:41 | 39.28580 | -75.36641 | 15295 ft | 371 kts | 193° |
| 2026-05-05 18:42 | 39.26010 | -75.37103 | 15716 ft | 374 kts | 193° |
| 2026-05-05 18:42 | 39.23416 | -75.37569 | 16155 ft | 378 kts | 193° |
| 2026-05-05 18:42 | 39.20796 | -75.38038 | 16582 ft | 382 kts | 192° |
| 2026-05-05 18:42 | 39.18188 | -75.38504 | 16997 ft | 385 kts | 192° |
| 2026-05-05 18:43 | 39.15521 | -75.38980 | 17394 ft | 389 kts | 192° |
| 2026-05-05 18:43 | 39.12827 | -75.39459 | 17783 ft | 392 kts | 192° |
| 2026-05-05 18:43 | 39.10107 | -75.39943 | 18173 ft | 396 kts | 192° |
| 2026-05-05 18:43 | 39.07369 | -75.40431 | 18500 ft | 399 kts | 192° |
| 2026-05-05 18:44 | 39.04604 | -75.40925 | 18846 ft | 402 kts | 192° |
| 2026-05-05 18:44 | 39.01822 | -75.41422 | 19191 ft | 405 kts | 192° |
| 2026-05-05 18:44 | 38.99017 | -75.41921 | 19534 ft | 408 kts | 192° |
| 2026-05-05 18:44 | 38.96195 | -75.42421 | 19885 ft | 410 kts | 191° |
| 2026-05-05 18:45 | 38.93351 | -75.42924 | 20227 ft | 413 kts | 192° |
| 2026-05-05 18:45 | 38.90521 | -75.43426 | 20563 ft | 416 kts | 192° |
| 2026-05-05 18:45 | 38.87632 | -75.43940 | 20913 ft | 419 kts | 191° |
| 2026-05-05 18:45 | 38.84723 | -75.44457 | 21234 ft | 422 kts | 191° |
| 2026-05-05 18:46 | 38.81796 | -75.44976 | 21558 ft | 425 kts | 191° |
| 2026-05-05 18:46 | 38.78845 | -75.45498 | 21883 ft | 428 kts | 191° |
| 2026-05-05 18:46 | 38.75882 | -75.46023 | 22199 ft | 431 kts | 191° |
| 2026-05-05 18:46 | 38.72934 | -75.46543 | 22517 ft | 434 kts | 191° |
| 2026-05-05 18:47 | 38.69925 | -75.47074 | 22832 ft | 437 kts | 191° |
| 2026-05-05 18:47 | 38.66898 | -75.47608 | 23134 ft | 440 kts | 191° |
| 2026-05-05 18:47 | 38.63848 | -75.48144 | 23435 ft | 443 kts | 191° |
| 2026-05-05 18:47 | 38.60785 | -75.48681 | 23706 ft | 446 kts | 191° |
| 2026-05-05 18:48 | 38.57699 | -75.49222 | 23978 ft | 448 kts | 191° |
| 2026-05-05 18:48 | 38.54601 | -75.49767 | 24254 ft | 450 kts | 191° |
| 2026-05-05 18:48 | 38.51488 | -75.50313 | 24531 ft | 452 kts | 191° |
| 2026-05-05 18:48 | 38.48395 | -75.50853 | 24809 ft | 454 kts | 191° |
| 2026-05-05 18:49 | 38.45249 | -75.51401 | 25086 ft | 456 kts | 191° |
| 2026-05-05 18:49 | 38.42102 | -75.51948 | 25339 ft | 458 kts | 191° |
| 2026-05-05 18:49 | 38.38936 | -75.52498 | 25599 ft | 460 kts | 191° |
| 2026-05-05 18:49 | 38.35793 | -75.53299 | 25851 ft | 458 kts | 199° |
| 2026-05-05 18:50 | 38.32818 | -75.54721 | 26104 ft | 456 kts | 209° |
| 2026-05-05 18:50 | 38.30110 | -75.56683 | 26355 ft | 453 kts | 218° |
| 2026-05-05 18:50 | 38.27503 | -75.58972 | 26598 ft | 455 kts | 218° |
| 2026-05-05 18:50 | 38.24893 | -75.61257 | 26848 ft | 457 kts | 218° |
| 2026-05-05 18:51 | 38.22264 | -75.63547 | 27084 ft | 458 kts | 218° |
| 2026-05-05 18:51 | 38.19620 | -75.65844 | 27310 ft | 460 kts | 218° |
| 2026-05-05 18:51 | 38.16967 | -75.68147 | 27531 ft | 462 kts | 218° |
| 2026-05-05 18:51 | 38.14308 | -75.70450 | 27753 ft | 464 kts | 218° |
| 2026-05-05 18:52 | 38.11637 | -75.72762 | 27960 ft | 465 kts | 218° |
| 2026-05-05 18:52 | 38.08958 | -75.75083 | 28163 ft | 467 kts | 218° |
| 2026-05-05 18:52 | 38.06274 | -75.77408 | 28357 ft | 468 kts | 218° |
| 2026-05-05 18:52 | 38.03611 | -75.79711 | 28574 ft | 468 kts | 218° |
| 2026-05-05 18:53 | 38.00921 | -75.82036 | 28873 ft | 467 kts | 218° |
| 2026-05-05 18:53 | 37.98235 | -75.84358 | 29145 ft | 467 kts | 218° |
| 2026-05-05 18:53 | 37.95553 | -75.86675 | 29413 ft | 466 kts | 218° |
| 2026-05-05 18:53 | 37.92873 | -75.88987 | 29687 ft | 466 kts | 218° |
| 2026-05-05 18:54 | 37.90190 | -75.91298 | 29955 ft | 465 kts | 218° |
| 2026-05-05 18:54 | 37.87513 | -75.93601 | 30204 ft | 465 kts | 218° |
| 2026-05-05 18:54 | 37.84833 | -75.95904 | 30409 ft | 465 kts | 218° |
| 2026-05-05 18:54 | 37.82161 | -75.98197 | 30607 ft | 465 kts | 219° |
| 2026-05-05 18:55 | 37.79485 | -76.00499 | 30796 ft | 465 kts | 219° |
| 2026-05-05 18:55 | 37.76809 | -76.02800 | 30965 ft | 466 kts | 218° |
| 2026-05-05 18:55 | 37.74118 | -76.05106 | 31158 ft | 466 kts | 218° |
| 2026-05-05 18:55 | 37.71434 | -76.07403 | 31352 ft | 466 kts | 218° |
| 2026-05-05 18:56 | 37.68746 | -76.09699 | 31558 ft | 466 kts | 219° |
| 2026-05-05 18:56 | 37.66091 | -76.11967 | 31769 ft | 466 kts | 219° |
| 2026-05-05 18:56 | 37.63407 | -76.14258 | 31971 ft | 466 kts | 218° |
| 2026-05-05 18:56 | 37.60603 | -76.16355 | 32171 ft | 471 kts | 211° |
| 2026-05-05 18:57 | 37.57552 | -76.17917 | 32375 ft | 476 kts | 202° |
| 2026-05-05 18:57 | 37.54406 | -76.19213 | 32567 ft | 476 kts | 202° |
| 2026-05-05 18:57 | 37.51257 | -76.20514 | 32752 ft | 476 kts | 202° |
| 2026-05-05 18:57 | 37.48110 | -76.21820 | 32928 ft | 477 kts | 203° |
| 2026-05-05 18:58 | 37.44956 | -76.23130 | 33120 ft | 477 kts | 203° |
| 2026-05-05 18:58 | 37.41800 | -76.24439 | 33304 ft | 477 kts | 203° |
| 2026-05-05 18:58 | 37.38645 | -76.25745 | 33480 ft | 477 kts | 203° |
| 2026-05-05 18:58 | 37.35491 | -76.27048 | 33652 ft | 478 kts | 203° |
| 2026-05-05 18:59 | 37.32327 | -76.28355 | 33830 ft | 478 kts | 203° |
| 2026-05-05 18:59 | 37.29162 | -76.29664 | 34006 ft | 479 kts | 203° |
| 2026-05-05 18:59 | 37.22864 | -76.32265 | 34040 ft | 478 kts | 203° |
| 2026-05-05 19:00 | 37.16526 | -76.34876 | 34057 ft | 479 kts | 203° |
| 2026-05-05 19:00 | 37.10195 | -76.37473 | 34041 ft | 478 kts | 203° |
| 2026-05-05 19:01 | 37.03867 | -76.40067 | 34040 ft | 478 kts | 203° |
| 2026-05-05 19:01 | 36.97549 | -76.42662 | 34082 ft | 478 kts | 203° |
| 2026-05-05 19:02 | 36.91259 | -76.45240 | 34054 ft | 478 kts | 203° |
| 2026-05-05 19:02 | 36.84923 | -76.47822 | 34066 ft | 478 kts | 202° |
| 2026-05-05 19:03 | 36.78581 | -76.50399 | 34069 ft | 479 kts | 203° |
| 2026-05-05 19:03 | 36.72271 | -76.52973 | 34077 ft | 479 kts | 204° |
| 2026-05-05 19:04 | 36.65921 | -76.55556 | 34071 ft | 480 kts | 204° |
| 2026-05-05 19:04 | 36.59555 | -76.58133 | 34078 ft | 481 kts | 204° |
| 2026-05-05 19:05 | 36.53222 | -76.60689 | 34074 ft | 481 kts | 204° |
| 2026-05-05 19:05 | 36.46839 | -76.63267 | 34073 ft | 482 kts | 204° |
| 2026-05-05 19:06 | 36.41523 | -76.65411 | 34069 ft | 482 kts | 204° |
| 2026-05-05 19:06 | 36.35118 | -76.67995 | 34087 ft | 483 kts | 204° |
| 2026-05-05 19:07 | 36.28755 | -76.70560 | 34094 ft | 483 kts | 204° |
| 2026-05-05 19:07 | 36.22337 | -76.73136 | 34100 ft | 484 kts | 204° |
| 2026-05-05 19:08 | 36.15951 | -76.75683 | 34104 ft | 484 kts | 204° |
| 2026-05-05 19:08 | 36.09525 | -76.78256 | 34115 ft | 484 kts | 204° |
| 2026-05-05 19:09 | 36.03104 | -76.80827 | 34112 ft | 484 kts | 204° |
| 2026-05-05 19:09 | 35.96726 | -76.83375 | 34107 ft | 485 kts | 204° |
| 2026-05-05 19:10 | 35.90361 | -76.86088 | 34105 ft | 480 kts | 211° |
| 2026-05-05 19:10 | 35.84399 | -76.89716 | 34085 ft | 478 kts | 214° |
| 2026-05-05 19:11 | 35.78423 | -76.93378 | 34072 ft | 480 kts | 214° |
| 2026-05-05 19:11 | 35.72442 | -76.97090 | 34089 ft | 482 kts | 214° |
| 2026-05-05 19:12 | 35.66482 | -77.00774 | 34099 ft | 483 kts | 214° |
| 2026-05-05 19:12 | 35.60448 | -77.04473 | 34106 ft | 483 kts | 214° |
| 2026-05-05 19:13 | 35.54413 | -77.08159 | 34095 ft | 484 kts | 214° |
| 2026-05-05 19:13 | 35.48411 | -77.11815 | 34100 ft | 485 kts | 214° |
| 2026-05-05 19:14 | 35.42353 | -77.15512 | 34107 ft | 485 kts | 214° |
| 2026-05-05 19:14 | 35.36333 | -77.19183 | 34113 ft | 486 kts | 214° |
| 2026-05-05 19:15 | 35.30269 | -77.22861 | 34117 ft | 486 kts | 214° |
| 2026-05-05 19:15 | 35.24215 | -77.26514 | 34113 ft | 485 kts | 216° |
| 2026-05-05 19:16 | 35.18175 | -77.30160 | 34123 ft | 486 kts | 216° |
| 2026-05-05 19:16 | 35.12108 | -77.33859 | 34143 ft | 486 kts | 216° |
| 2026-05-05 19:17 | 35.06042 | -77.37535 | 34130 ft | 486 kts | 215° |
| 2026-05-05 19:17 | 34.99999 | -77.41171 | 34132 ft | 487 kts | 215° |
| 2026-05-05 19:18 | 34.93907 | -77.44832 | 34142 ft | 487 kts | 215° |
| 2026-05-05 19:18 | 34.87809 | -77.48498 | 34150 ft | 487 kts | 215° |
| 2026-05-05 19:19 | 34.81756 | -77.52129 | 34128 ft | 488 kts | 215° |
| 2026-05-05 19:19 | 34.75651 | -77.55788 | 34131 ft | 488 kts | 215° |
| 2026-05-05 19:20 | 34.69539 | -77.59442 | 34126 ft | 489 kts | 215° |
| 2026-05-05 19:20 | 34.63435 | -77.63086 | 34154 ft | 488 kts | 216° |
| 2026-05-05 19:21 | 34.57345 | -77.66638 | 34134 ft | 492 kts | 211° |
| 2026-05-05 19:21 | 34.54056 | -77.67958 | 34136 ft | 503 kts | 202° |
| 2026-05-05 19:21 | 34.50618 | -77.68859 | 34138 ft | 506 kts | 199° |
| 2026-05-05 19:22 | 34.43722 | -77.70598 | 34137 ft | 506 kts | 200° |
| 2026-05-05 19:22 | 34.36826 | -77.72354 | 34119 ft | 506 kts | 200° |
| 2026-05-05 19:23 | 34.29973 | -77.74104 | 34125 ft | 506 kts | 200° |
| 2026-05-05 19:23 | 34.23082 | -77.75854 | 34130 ft | 507 kts | 199° |
| 2026-05-05 19:24 | 34.16164 | -77.77601 | 34139 ft | 507 kts | 199° |
| 2026-05-05 19:24 | 34.09241 | -77.79347 | 34126 ft | 507 kts | 199° |
| 2026-05-05 19:25 | 34.02331 | -77.81100 | 34135 ft | 507 kts | 199° |
| 2026-05-05 19:25 | 33.95418 | -77.82844 | 34157 ft | 508 kts | 199° |
| 2026-05-05 19:26 | 33.88489 | -77.84579 | 34150 ft | 508 kts | 199° |
| 2026-05-05 19:26 | 33.81599 | -77.86304 | 34138 ft | 508 kts | 199° |
| 2026-05-05 19:27 | 33.74720 | -77.88215 | 34140 ft | 504 kts | 203° |
| 2026-05-05 19:27 | 33.67998 | -77.90559 | 34144 ft | 502 kts | 205° |
| 2026-05-05 19:28 | 33.61348 | -77.92988 | 34129 ft | 502 kts | 205° |
| 2026-05-05 19:28 | 33.54614 | -77.95327 | 34138 ft | 503 kts | 204° |
| 2026-05-05 19:29 | 33.47840 | -77.97578 | 34131 ft | 504 kts | 203° |
| 2026-05-05 19:29 | 33.41128 | -77.99795 | 34141 ft | 503 kts | 203° |
| 2026-05-05 19:30 | 33.34376 | -78.02068 | 34132 ft | 502 kts | 204° |
| 2026-05-05 19:30 | 33.27643 | -78.04364 | 34147 ft | 502 kts | 204° |
| 2026-05-05 19:31 | 33.20963 | -78.06625 | 34152 ft | 502 kts | 204° |
| 2026-05-05 19:31 | 33.14222 | -78.08881 | 34154 ft | 502 kts | 203° |
| 2026-05-05 19:32 | 33.07486 | -78.11120 | 34128 ft | 502 kts | 203° |
| 2026-05-05 19:32 | 33.00756 | -78.13357 | 34140 ft | 501 kts | 204° |
| 2026-05-05 19:33 | 32.94041 | -78.15608 | 34146 ft | 501 kts | 204° |
| 2026-05-05 19:33 | 32.87374 | -78.17844 | 34148 ft | 501 kts | 204° |
| 2026-05-05 19:34 | 32.80652 | -78.20074 | 34146 ft | 501 kts | 203° |
| 2026-05-05 19:35 | 32.70557 | -78.23413 | 34149 ft | 501 kts | 204° |
| 2026-05-05 19:35 | 32.63833 | -78.25647 | 34144 ft | 501 kts | 204° |
| 2026-05-05 19:36 | 32.57153 | -78.27865 | 34126 ft | 501 kts | 204° |
| 2026-05-05 19:36 | 32.50431 | -78.30086 | 34142 ft | 500 kts | 204° |
| 2026-05-05 19:37 | 32.43719 | -78.32298 | 34149 ft | 500 kts | 204° |
| 2026-05-05 19:37 | 32.37038 | -78.34493 | 34151 ft | 500 kts | 204° |
| 2026-05-05 19:38 | 32.30331 | -78.36699 | 34132 ft | 499 kts | 204° |
| 2026-05-05 19:38 | 32.23628 | -78.38897 | 34143 ft | 499 kts | 204° |
| 2026-05-05 19:39 | 32.16972 | -78.41088 | 34141 ft | 499 kts | 204° |
| 2026-05-05 19:39 | 32.10278 | -78.43283 | 34144 ft | 498 kts | 204° |
| 2026-05-05 19:40 | 32.05598 | -78.44806 | 34122 ft | 498 kts | 204° |
| 2026-05-05 19:40 | 31.99460 | -78.46810 | 34139 ft | 497 kts | 204° |
| 2026-05-05 19:41 | 31.92790 | -78.48988 | 34148 ft | 497 kts | 204° |
| 2026-05-05 19:41 | 31.86122 | -78.51159 | 34151 ft | 496 kts | 204° |
| 2026-05-05 19:42 | 31.79496 | -78.53315 | 34132 ft | 496 kts | 204° |
| 2026-05-05 19:42 | 31.72836 | -78.55478 | 34147 ft | 495 kts | 204° |
| 2026-05-05 19:43 | 31.66179 | -78.57637 | 34147 ft | 495 kts | 204° |
| 2026-05-05 19:43 | 31.59544 | -78.59781 | 34148 ft | 494 kts | 204° |
| 2026-05-05 19:44 | 31.52945 | -78.61916 | 34126 ft | 494 kts | 205° |
| 2026-05-05 19:44 | 31.46350 | -78.64148 | 34139 ft | 492 kts | 205° |
| 2026-05-05 19:45 | 31.39779 | -78.66441 | 34144 ft | 492 kts | 206° |
| 2026-05-05 19:45 | 31.33243 | -78.68704 | 34123 ft | 492 kts | 206° |
| 2026-05-05 19:46 | 31.26657 | -78.70956 | 34111 ft | 491 kts | 206° |
| 2026-05-05 19:46 | 31.20120 | -78.73176 | 34127 ft | 491 kts | 206° |
| 2026-05-05 19:47 | 31.13548 | -78.75407 | 34133 ft | 491 kts | 206° |
| 2026-05-05 19:47 | 31.06969 | -78.77643 | 34139 ft | 491 kts | 206° |
| 2026-05-05 19:48 | 31.00397 | -78.79874 | 34112 ft | 491 kts | 206° |
| 2026-05-05 19:48 | 30.93863 | -78.82094 | 34133 ft | 491 kts | 206° |
| 2026-05-05 19:49 | 30.87284 | -78.84324 | 34129 ft | 492 kts | 206° |
| 2026-05-05 19:49 | 30.80710 | -78.86535 | 34127 ft | 492 kts | 206° |
| 2026-05-05 19:50 | 30.74162 | -78.88746 | 34096 ft | 492 kts | 206° |
| 2026-05-05 19:50 | 30.67576 | -78.90974 | 34107 ft | 492 kts | 206° |
| 2026-05-05 19:51 | 30.60983 | -78.93196 | 34123 ft | 492 kts | 206° |
| 2026-05-05 19:51 | 30.54434 | -78.95394 | 34129 ft | 492 kts | 206° |
| 2026-05-05 19:52 | 30.47831 | -78.97604 | 34095 ft | 492 kts | 206° |
| 2026-05-05 19:52 | 30.41282 | -78.99821 | 34113 ft | 490 kts | 208° |
| 2026-05-05 19:53 | 30.34888 | -79.02451 | 34126 ft | 484 kts | 212° |
| 2026-05-05 19:53 | 30.29689 | -79.04872 | 34130 ft | 483 kts | 213° |
| 2026-05-05 19:54 | 30.23428 | -79.07745 | 34122 ft | 484 kts | 212° |
| 2026-05-05 19:54 | 30.17171 | -79.10482 | 34130 ft | 484 kts | 211° |
| 2026-05-05 19:55 | 30.10840 | -79.13189 | 34132 ft | 484 kts | 211° |
| 2026-05-05 19:55 | 30.04534 | -79.15900 | 34132 ft | 483 kts | 211° |
| 2026-05-05 19:56 | 29.98238 | -79.18635 | 34131 ft | 483 kts | 211° |
| 2026-05-05 19:56 | 29.91947 | -79.21375 | 34102 ft | 482 kts | 211° |
| 2026-05-05 19:57 | 29.85709 | -79.24085 | 34122 ft | 482 kts | 211° |
| 2026-05-05 19:57 | 29.79423 | -79.26793 | 34127 ft | 482 kts | 211° |
| 2026-05-05 19:58 | 29.73131 | -79.29490 | 34134 ft | 481 kts | 211° |
| 2026-05-05 19:58 | 29.66859 | -79.32193 | 34100 ft | 481 kts | 211° |
| 2026-05-05 19:59 | 29.60633 | -79.34883 | 34112 ft | 480 kts | 211° |
| 2026-05-05 19:59 | 29.54367 | -79.37574 | 34121 ft | 480 kts | 211° |
| 2026-05-05 20:00 | 29.48136 | -79.40247 | 34123 ft | 480 kts | 211° |
| 2026-05-05 20:00 | 29.41874 | -79.42925 | 34104 ft | 479 kts | 210° |
| 2026-05-05 20:00 | 29.38756 | -79.44260 | 33930 ft | 477 kts | 210° |
| 2026-05-05 20:01 | 29.35644 | -79.45590 | 33668 ft | 476 kts | 210° |
| 2026-05-05 20:01 | 29.32542 | -79.46916 | 33363 ft | 475 kts | 210° |
| 2026-05-05 20:01 | 29.29432 | -79.48254 | 32447 ft | 480 kts | 209° |
| 2026-05-05 20:01 | 29.26291 | -79.49603 | 31556 ft | 483 kts | 209° |
| 2026-05-05 20:02 | 29.23130 | -79.50956 | 30634 ft | 486 kts | 208° |
| 2026-05-05 20:02 | 29.19947 | -79.52314 | 29615 ft | 490 kts | 208° |
| 2026-05-05 20:02 | 29.16828 | -79.53741 | 29141 ft | 474 kts | 213° |
| 2026-05-05 20:02 | 29.14014 | -79.55579 | 28530 ft | 458 kts | 223° |
| 2026-05-05 20:03 | 29.11586 | -79.57826 | 27963 ft | 441 kts | 232° |
| 2026-05-05 20:03 | 29.09561 | -79.60372 | 27476 ft | 425 kts | 239° |
| 2026-05-05 20:03 | 29.07926 | -79.63119 | 26981 ft | 411 kts | 247° |
| 2026-05-05 20:03 | 29.06680 | -79.65952 | 26526 ft | 398 kts | 253° |
| 2026-05-05 20:04 | 29.05736 | -79.68882 | 26071 ft | 388 kts | 257° |
| 2026-05-05 20:04 | 29.04855 | -79.71772 | 25628 ft | 382 kts | 257° |
| 2026-05-05 20:04 | 29.03986 | -79.74615 | 25196 ft | 376 kts | 257° |
| 2026-05-05 20:04 | 29.03130 | -79.77420 | 24765 ft | 371 kts | 257° |
| 2026-05-05 20:05 | 29.02286 | -79.80181 | 24338 ft | 365 kts | 256° |
| 2026-05-05 20:05 | 29.01452 | -79.82904 | 23933 ft | 361 kts | 256° |
| 2026-05-05 20:05 | 29.00628 | -79.85596 | 23501 ft | 357 kts | 256° |
| 2026-05-05 20:05 | 28.99816 | -79.88270 | 23069 ft | 356 kts | 256° |
| 2026-05-05 20:06 | 28.99010 | -79.90936 | 22690 ft | 355 kts | 256° |
| 2026-05-05 20:06 | 28.98206 | -79.93594 | 22304 ft | 354 kts | 256° |
| 2026-05-05 20:06 | 28.97397 | -79.96245 | 21917 ft | 353 kts | 256° |
| 2026-05-05 20:06 | 28.96594 | -79.98891 | 21521 ft | 351 kts | 256° |
| 2026-05-05 20:07 | 28.95847 | -80.01506 | 21143 ft | 350 kts | 257° |
| 2026-05-05 20:07 | 28.95121 | -80.04157 | 20761 ft | 349 kts | 257° |
| 2026-05-05 20:07 | 28.94405 | -80.06802 | 20386 ft | 348 kts | 257° |
| 2026-05-05 20:07 | 28.93688 | -80.09444 | 20010 ft | 348 kts | 257° |
| 2026-05-05 20:08 | 28.92970 | -80.12076 | 19629 ft | 347 kts | 256° |
| 2026-05-05 20:08 | 28.92249 | -80.14699 | 19255 ft | 346 kts | 256° |
| 2026-05-05 20:08 | 28.91524 | -80.17320 | 18881 ft | 346 kts | 256° |
| 2026-05-05 20:08 | 28.90797 | -80.19936 | 18487 ft | 346 kts | 256° |
| 2026-05-05 20:09 | 28.90068 | -80.22552 | 18063 ft | 345 kts | 256° |
| 2026-05-05 20:09 | 28.89342 | -80.25157 | 17634 ft | 344 kts | 256° |
| 2026-05-05 20:09 | 28.88618 | -80.27759 | 17248 ft | 342 kts | 256° |
| 2026-05-05 20:09 | 28.87898 | -80.30334 | 16843 ft | 340 kts | 255° |
| 2026-05-05 20:10 | 28.87181 | -80.32892 | 16452 ft | 337 kts | 255° |
| 2026-05-05 20:10 | 28.86467 | -80.35430 | 16054 ft | 335 kts | 255° |
| 2026-05-05 20:10 | 28.85756 | -80.37953 | 15583 ft | 333 kts | 255° |
| 2026-05-05 20:10 | 28.85051 | -80.40459 | 15171 ft | 330 kts | 255° |
| 2026-05-05 20:11 | 28.84351 | -80.42949 | 14775 ft | 328 kts | 255° |
| 2026-05-05 20:11 | 28.83657 | -80.45416 | 14381 ft | 326 kts | 255° |
| 2026-05-05 20:11 | 28.83093 | -80.47909 | 13989 ft | 322 kts | 262° |
| 2026-05-05 20:11 | 28.82862 | -80.50500 | 13886 ft | 337 kts | 266° |
| 2026-05-05 20:12 | 28.82661 | -80.53197 | 13809 ft | 343 kts | 266° |
| 2026-05-05 20:12 | 28.82443 | -80.55882 | 13725 ft | 346 kts | 266° |
| 2026-05-05 20:12 | 28.82208 | -80.58622 | 13644 ft | 347 kts | 266° |
| 2026-05-05 20:12 | 28.81970 | -80.61362 | 13568 ft | 347 kts | 266° |
| 2026-05-05 20:13 | 28.81736 | -80.64103 | 13469 ft | 347 kts | 266° |
| 2026-05-05 20:13 | 28.81507 | -80.66844 | 13393 ft | 347 kts | 266° |
| 2026-05-05 20:13 | 28.81283 | -80.69577 | 13314 ft | 346 kts | 266° |
| 2026-05-05 20:13 | 28.81058 | -80.72311 | 13234 ft | 346 kts | 266° |
| 2026-05-05 20:14 | 28.80835 | -80.75040 | 13156 ft | 345 kts | 266° |
| 2026-05-05 20:14 | 28.80613 | -80.77761 | 13077 ft | 345 kts | 266° |
| 2026-05-05 20:14 | 28.80388 | -80.80480 | 13000 ft | 344 kts | 266° |
| 2026-05-05 20:14 | 28.80161 | -80.83195 | 12924 ft | 344 kts | 266° |
| 2026-05-05 20:15 | 28.79933 | -80.85904 | 12850 ft | 343 kts | 266° |
| 2026-05-05 20:15 | 28.79704 | -80.88613 | 12766 ft | 343 kts | 266° |
| 2026-05-05 20:15 | 28.79477 | -80.91314 | 12704 ft | 342 kts | 266° |
| 2026-05-05 20:15 | 28.79249 | -80.94004 | 12636 ft | 339 kts | 265° |
| 2026-05-05 20:16 | 28.79021 | -80.96673 | 12564 ft | 338 kts | 265° |
| 2026-05-05 20:16 | 28.78795 | -80.99339 | 12487 ft | 337 kts | 265° |
| 2026-05-05 20:16 | 28.78337 | -81.01961 | 12412 ft | 339 kts | 254° |
| 2026-05-05 20:16 | 28.77394 | -81.04391 | 12339 ft | 341 kts | 242° |
| 2026-05-05 20:17 | 28.76007 | -81.06576 | 12259 ft | 337 kts | 234° |
| 2026-05-05 20:17 | 28.74570 | -81.08603 | 12131 ft | 321 kts | 234° |
| 2026-05-05 20:17 | 28.73202 | -81.10539 | 11999 ft | 306 kts | 234° |
| 2026-05-05 20:17 | 28.71888 | -81.12382 | 11828 ft | 295 kts | 231° |
| 2026-05-05 20:18 | 28.70349 | -81.13913 | 11586 ft | 294 kts | 216° |
| 2026-05-05 20:18 | 28.68510 | -81.14917 | 11342 ft | 295 kts | 201° |
| 2026-05-05 20:18 | 28.66515 | -81.15469 | 11052 ft | 295 kts | 197° |
| 2026-05-05 20:18 | 28.64513 | -81.15985 | 10628 ft | 295 kts | 196° |
| 2026-05-05 20:19 | 28.62509 | -81.16502 | 10236 ft | 294 kts | 196° |
| 2026-05-05 20:19 | 28.60528 | -81.17012 | 9894 ft | 290 kts | 196° |
| 2026-05-05 20:19 | 28.58582 | -81.17514 | 9429 ft | 279 kts | 196° |
| 2026-05-05 20:19 | 28.56728 | -81.17993 | 9261 ft | 269 kts | 196° |
| 2026-05-05 20:20 | 28.54926 | -81.18456 | 9058 ft | 261 kts | 194° |
| 2026-05-05 20:20 | 28.53139 | -81.18634 | 8869 ft | 265 kts | 184° |
| 2026-05-05 20:20 | 28.51298 | -81.18662 | 8492 ft | 265 kts | 183° |
| 2026-05-05 20:20 | 28.49458 | -81.18675 | 8126 ft | 264 kts | 182° |
| 2026-05-05 20:21 | 28.47618 | -81.18683 | 7767 ft | 264 kts | 182° |
| 2026-05-05 20:21 | 28.45786 | -81.18696 | 7452 ft | 262 kts | 182° |
| 2026-05-05 20:21 | 28.43963 | -81.18710 | 7101 ft | 261 kts | 182° |
| 2026-05-05 20:21 | 28.42146 | -81.18724 | 6755 ft | 260 kts | 182° |
| 2026-05-05 20:22 | 28.40346 | -81.18737 | 6429 ft | 259 kts | 181° |
| 2026-05-05 20:22 | 28.38568 | -81.18747 | 5972 ft | 251 kts | 181° |
| 2026-05-05 20:22 | 28.36816 | -81.18754 | 5623 ft | 254 kts | 181° |
| 2026-05-05 20:22 | 28.35051 | -81.18765 | 5268 ft | 253 kts | 181° |
| 2026-05-05 20:23 | 28.33310 | -81.18778 | 5055 ft | 246 kts | 181° |
| 2026-05-05 20:23 | 28.31621 | -81.18792 | 5016 ft | 241 kts | 181° |
| 2026-05-05 20:23 | 28.29941 | -81.18796 | 5013 ft | 242 kts | 180° |
| 2026-05-05 20:23 | 28.28281 | -81.18773 | 5014 ft | 242 kts | 179° |
| 2026-05-05 20:24 | 28.26601 | -81.18734 | 4903 ft | 240 kts | 179° |
| 2026-05-05 20:24 | 28.24934 | -81.18693 | 4565 ft | 239 kts | 179° |
| 2026-05-05 20:24 | 28.23313 | -81.18655 | 4403 ft | 227 kts | 180° |
| 2026-05-05 20:24 | 28.21798 | -81.18974 | 4121 ft | 221 kts | 205° |
| 2026-05-05 20:25 | 28.20593 | -81.20024 | 4015 ft | 221 kts | 232° |
| 2026-05-05 20:25 | 28.19922 | -81.21592 | 4022 ft | 224 kts | 256° |
| 2026-05-05 20:25 | 28.19786 | -81.23346 | 4021 ft | 225 kts | 275° |
| 2026-05-05 20:25 | 28.20177 | -81.25053 | 4020 ft | 225 kts | 295° |
| 2026-05-05 20:26 | 28.21048 | -81.26511 | 3949 ft | 224 kts | 315° |
| 2026-05-05 20:26 | 28.22294 | -81.27547 | 3778 ft | 223 kts | 335° |
| 2026-05-05 20:26 | 28.23765 | -81.28029 | 3543 ft | 219 kts | 356° |
| 2026-05-05 20:26 | 28.25262 | -81.28070 | 3284 ft | 218 kts | 2° |
| 2026-05-05 20:27 | 28.26777 | -81.28081 | 2998 ft | 218 kts | 1° |
| 2026-05-05 20:27 | 28.28294 | -81.28095 | 2719 ft | 218 kts | 1° |
| 2026-05-05 20:27 | 28.29820 | -81.28111 | 2429 ft | 221 kts | 1° |
| 2026-05-05 20:27 | 28.31329 | -81.28127 | 2147 ft | 210 kts | 1° |
| 2026-05-05 20:28 | 28.32744 | -81.28142 | 1857 ft | 196 kts | 1° |
| 2026-05-05 20:28 | 28.34036 | -81.28157 | 1638 ft | 177 kts | 2° |
| 2026-05-05 20:28 | 28.35206 | -81.28169 | 1397 ft | 161 kts | 3° |
| 2026-05-05 20:28 | 28.36297 | -81.28179 | 1201 ft | 153 kts | 4° |
| 2026-05-05 20:29 | 28.37348 | -81.28190 | 1021 ft | 150 kts | 4° |
| 2026-05-05 20:29 | 28.38395 | -81.28204 | 794 ft | 150 kts | 3° |
| 2026-05-05 20:29 | 28.39438 | -81.28209 | 634 ft | 151 kts | 2° |
| 2026-05-05 20:29 | 28.40500 | -81.28220 | 412 ft | 152 kts | 2° |
| 2026-05-05 20:30 | 28.41549 | -81.28228 | 209 ft | 152 kts | 1° |
| 2026-05-05 20:30 | 28.42556 | -81.28235 | 100 ft | 124 kts | 1° |
| 2026-05-05 20:30 | 28.43129 | -81.28239 | 96 ft | 38 kts | 359° |
| 2026-05-05 20:30 | 28.43171 | -81.28239 | 96 ft | 13 kts | 359° |
| 2026-05-05 20:31 | 28.43401 | -81.28243 | 96 ft | 25 kts | 358° |
| 2026-05-05 20:31 | 28.43491 | -81.28289 | 97 ft | 11 kts | 329° |
| 2026-05-05 20:31 | 28.43531 | -81.28348 | 95 ft | 9 kts | 253° |
| 2026-05-05 20:31 | 28.43467 | -81.28373 | 97 ft | 13 kts | 180° |
| 2026-05-05 20:32 | 28.43356 | -81.28372 | 94 ft | 18 kts | 179° |
| 2026-05-05 20:32 | 28.43227 | -81.28370 | 94 ft | 19 kts | 179° |
| 2026-05-05 20:32 | 28.43093 | -81.28368 | 97 ft | 19 kts | 179° |
| 2026-05-05 20:32 | 28.42957 | -81.28371 | 96 ft | 20 kts | 179° |
| 2026-05-05 20:33 | 28.42815 | -81.28367 | 97 ft | 21 kts | 179° |
| 2026-05-05 20:33 | 28.42668 | -81.28365 | 97 ft | 21 kts | 179° |
| 2026-05-05 20:33 | 28.42543 | -81.28370 | 96 ft | 17 kts | 200° |
| 2026-05-05 20:33 | 28.42482 | -81.28486 | 96 ft | 18 kts | 250° |
| 2026-05-05 20:34 | 28.42439 | -81.28625 | 99 ft | 19 kts | 250° |
| 2026-05-05 20:34 | 28.42393 | -81.28769 | 103 ft | 18 kts | 251° |
| 2026-05-05 20:34 | 28.42349 | -81.28911 | 104 ft | 20 kts | 250° |
| 2026-05-05 20:34 | 28.42298 | -81.29084 | 96 ft | 27 kts | 255° |
| 2026-05-05 20:35 | 28.42286 | -81.29267 | 95 ft | 22 kts | 268° |
| 2026-05-05 20:35 | 28.42283 | -81.29449 | 95 ft | 24 kts | 269° |
| 2026-05-05 20:35 | 28.42281 | -81.29651 | 94 ft | 27 kts | 269° |
| 2026-05-05 20:35 | 28.42280 | -81.29865 | 95 ft | 28 kts | 269° |
| 2026-05-05 20:36 | 28.42278 | -81.30097 | 94 ft | 30 kts | 269° |
| 2026-05-05 20:36 | 28.42275 | -81.30293 | 94 ft | 20 kts | 269° |
| 2026-05-05 20:36 | 28.42269 | -81.30465 | 96 ft | 23 kts | 264° |
| 2026-05-05 20:36 | 28.42255 | -81.30648 | 98 ft | 18 kts | 266° |
| 2026-05-05 20:37 | 28.42245 | -81.30807 | 94 ft | 22 kts | 266° |
| 2026-05-05 20:37 | 28.42236 | -81.30926 | 95 ft | 24 kts | 265° |
| 2026-05-05 20:37 | 28.42256 | -81.31172 | 96 ft | 14 kts | 279° |
| 2026-05-05 20:37 | 28.42287 | -81.31266 | 97 ft | 13 kts | 324° |
| 2026-05-05 20:38 | 28.42377 | -81.31283 | 95 ft | 14 kts | 5° |
| 2026-05-05 20:38 | 28.42464 | -81.31235 | 95 ft | 14 kts | 32° |
| 2026-05-05 20:38 | 28.42527 | -81.31190 | 95 ft | 9 kts | 32° |
| 2026-05-05 20:38 | 28.42580 | -81.31168 | 96 ft | 5 kts | 329° |
| 2026-05-05 20:39 | 28.42610 | -81.31204 | 95 ft | 7 kts | 322° |
| 2026-05-05 20:39 | 28.42633 | -81.31224 | 94 ft | 3 kts | 323° |
| 2026-05-05 20:39 | 28.42638 | -81.31228 | 94 ft | 0 kts | 324° |